createdAt,value
2017-09-04T00:02:21.986Z,66.09
2017-09-04T00:04:49.374Z,65.77
2017-09-04T00:07:16.774Z,64.62
2017-09-04T00:09:44.150Z,65.05
2017-09-04T00:12:11.537Z,65.39
2017-09-04T00:14:38.922Z,65.57
2017-09-04T00:17:06.314Z,65.07
2017-09-04T00:19:33.698Z,65.44
2017-09-04T00:22:01.094Z,65.24
2017-09-04T00:24:28.485Z,66.22
2017-09-04T00:26:55.902Z,65.33
2017-09-04T00:29:23.290Z,64.72
2017-09-04T00:31:50.690Z,64.38
2017-09-04T00:34:18.074Z,64.50
2017-09-04T00:36:45.467Z,65.87
2017-09-04T00:39:12.860Z,66.30
2017-09-04T00:41:40.259Z,65.40
2017-09-04T00:44:07.685Z,65.91
2017-09-04T00:46:35.074Z,66.64
2017-09-04T00:49:02.473Z,66.39
2017-09-04T00:51:29.860Z,66.29
2017-09-04T00:53:57.246Z,67.83
2017-09-04T00:56:24.635Z,68.18
2017-09-04T00:58:52.035Z,68.73
2017-09-04T01:01:19.423Z,67.44
2017-09-04T01:03:46.814Z,66.74
2017-09-04T01:06:14.217Z,67.21
2017-09-04T01:08:41.619Z,67.08
2017-09-04T01:11:09.002Z,65.96
2017-09-04T01:13:36.394Z,68.18
2017-09-04T01:16:03.778Z,68.21
2017-09-04T01:18:31.266Z,67.88
2017-09-04T01:20:58.650Z,66.83
2017-09-04T01:23:26.037Z,66.96
2017-09-04T01:25:53.522Z,68.21
2017-09-04T01:28:20.915Z,67.28
2017-09-04T01:30:48.310Z,68.10
2017-09-04T01:33:15.701Z,68.60
2017-09-04T01:35:43.094Z,67.42
2017-09-04T01:38:10.490Z,66.87
2017-09-04T01:40:37.884Z,67.12
2017-09-04T01:43:05.273Z,66.87
2017-09-04T01:45:32.662Z,66.37
2017-09-04T01:48:00.051Z,66.24
2017-09-04T01:50:27.445Z,65.93
2017-09-04T01:52:54.834Z,66.29
2017-09-04T01:55:22.230Z,67.01
2017-09-04T01:57:49.614Z,66.94
2017-09-04T02:00:17.098Z,65.87
2017-09-04T02:02:44.482Z,65.53
2017-09-04T02:05:11.915Z,65.63
2017-09-04T02:07:39.298Z,66.33
2017-09-04T02:10:06.694Z,65.44
2017-09-04T02:12:34.092Z,66.01
2017-09-04T02:15:01.490Z,65.42
2017-09-04T02:17:28.875Z,66.49
2017-09-04T02:19:56.266Z,67.86
2017-09-04T02:22:23.655Z,68.55
2017-09-04T02:24:51.049Z,67.46
2017-09-04T02:27:18.438Z,67.61
2017-09-04T02:29:45.892Z,68.63
2017-09-04T02:32:13.254Z,70.29
2017-09-04T02:34:40.648Z,70.52
2017-09-04T02:37:08.126Z,70.53
2017-09-04T02:39:35.518Z,69.24
2017-09-04T02:42:02.910Z,68.93
2017-09-04T02:44:30.300Z,68.57
2017-09-04T02:46:57.779Z,68.34
2017-09-04T02:49:25.163Z,67.94
2017-09-04T02:51:52.567Z,67.55
2017-09-04T02:54:20.040Z,67.26
2017-09-04T02:56:47.430Z,67.37
2017-09-04T02:59:14.830Z,66.12
2017-09-04T03:01:42.294Z,65.86
2017-09-04T03:04:09.742Z,66.71
2017-09-04T03:06:37.194Z,66.55
2017-09-04T03:09:04.587Z,66.48
2017-09-04T03:11:31.972Z,66.26
2017-09-04T03:14:01.279Z,66.12
2017-09-04T03:16:28.666Z,66.70
2017-09-04T03:18:56.057Z,68.08
2017-09-04T03:21:23.442Z,67.61
2017-09-04T03:23:50.842Z,66.87
2017-09-04T03:26:18.226Z,66.83
2017-09-04T03:28:45.614Z,66.82
2017-09-04T03:31:12.998Z,66.30
2017-09-04T03:33:40.386Z,65.73
2017-09-04T03:36:07.776Z,66.22
2017-09-04T03:38:35.219Z,66.98
2017-09-04T03:41:02.618Z,65.36
2017-09-04T03:43:30.010Z,66.16
2017-09-04T03:45:57.400Z,66.04
2017-09-04T03:48:24.797Z,66.63
2017-09-04T03:50:52.179Z,66.28
2017-09-04T03:53:19.580Z,67.22
2017-09-04T03:55:46.969Z,66.79
2017-09-04T03:58:14.351Z,66.45
2017-09-04T04:00:41.738Z,69.86
2017-09-04T04:03:09.126Z,70.12
2017-09-04T04:05:36.519Z,69.49
2017-09-04T04:08:03.902Z,68.66
2017-09-04T04:10:31.375Z,68.38
2017-09-04T04:12:58.762Z,68.62
2017-09-04T04:15:26.160Z,68.19
2017-09-04T04:17:53.538Z,67.39
2017-09-04T04:20:20.929Z,69.38
2017-09-04T04:22:48.327Z,68.91
2017-09-04T04:25:15.713Z,67.48
2017-09-04T04:27:43.102Z,66.48
2017-09-04T04:30:10.500Z,65.65
2017-09-04T04:32:37.918Z,65.95
2017-09-04T04:35:05.318Z,71.00
2017-09-04T04:37:32.710Z,70.34
2017-09-04T04:40:00.143Z,69.10
2017-09-04T04:42:27.526Z,68.38
2017-09-04T04:44:54.923Z,68.94
2017-09-04T04:47:22.323Z,68.52
2017-09-04T04:49:49.776Z,67.49
2017-09-04T04:52:17.232Z,69.96
2017-09-04T04:54:44.623Z,70.41
2017-09-04T04:57:12.014Z,70.38
2017-09-04T04:59:39.503Z,69.18
2017-09-04T05:02:06.921Z,68.54
2017-09-04T05:04:34.310Z,69.20
2017-09-04T05:07:01.699Z,69.62
2017-09-04T05:09:29.086Z,68.41
2017-09-04T05:11:56.475Z,68.26
2017-09-04T05:14:23.870Z,68.50
2017-09-04T05:16:51.282Z,68.38
2017-09-04T05:19:18.667Z,67.42
2017-09-04T05:21:46.090Z,66.73
2017-09-04T05:24:13.482Z,66.42
2017-09-04T05:26:40.884Z,65.32
2017-09-04T05:29:08.285Z,64.21
2017-09-04T05:31:35.657Z,63.10
2017-09-04T05:34:03.044Z,61.95
2017-09-04T05:36:30.426Z,59.33
2017-09-04T05:38:57.818Z,57.44
2017-09-04T05:41:25.207Z,56.27
2017-09-04T05:43:52.692Z,55.73
2017-09-04T05:46:20.141Z,53.76
2017-09-04T05:48:47.534Z,52.21
2017-09-04T05:53:48.810Z,48.33
2017-09-04T05:56:16.194Z,46.54
2017-09-04T05:58:43.686Z,44.59
2017-09-04T06:01:11.071Z,43.97
2017-09-04T06:03:38.462Z,42.91
2017-09-04T06:06:05.846Z,40.98
2017-09-04T06:08:33.243Z,39.83
2017-09-04T06:11:00.630Z,38.84
2017-09-04T06:13:28.110Z,37.65
2017-09-04T06:15:55.499Z,37.06
2017-09-04T06:18:22.911Z,36.57
2017-09-04T06:20:50.300Z,36.38
2017-09-04T06:23:17.735Z,37.30
2017-09-04T06:25:45.123Z,37.76
2017-09-04T06:28:12.511Z,37.36
2017-09-04T06:30:40.004Z,37.28
2017-09-04T06:33:07.386Z,37.85
2017-09-04T06:35:34.848Z,36.32
2017-09-04T06:38:02.223Z,37.56
2017-09-04T06:40:29.726Z,36.91
2017-09-04T06:42:57.110Z,36.24
2017-09-04T06:45:24.502Z,34.63
2017-09-04T06:47:51.905Z,33.83
2017-09-04T06:50:19.298Z,32.77
2017-09-04T06:52:46.686Z,31.22
2017-09-04T06:55:14.074Z,30.46
2017-09-04T06:57:41.461Z,29.54
2017-09-04T07:00:08.867Z,28.80
2017-09-04T07:02:36.256Z,29.33
2017-09-04T07:05:03.652Z,28.58
2017-09-04T07:07:31.033Z,28.37
2017-09-04T07:09:58.427Z,28.29
2017-09-04T07:12:25.841Z,27.21
2017-09-04T07:14:53.234Z,28.34
2017-09-04T07:17:20.659Z,28.67
2017-09-04T07:19:48.054Z,26.44
2017-09-04T07:22:15.458Z,26.12
2017-09-04T07:24:42.866Z,26.88
2017-09-04T07:27:10.277Z,26.04
2017-09-04T07:29:37.674Z,25.51
2017-09-04T07:32:05.081Z,25.13
2017-09-04T07:34:32.563Z,24.21
2017-09-04T07:36:59.947Z,23.74
2017-09-04T07:39:27.366Z,22.35
2017-09-04T07:41:54.747Z,22.54
2017-09-04T07:44:22.162Z,23.23
2017-09-04T07:46:49.564Z,22.78
2017-09-04T07:49:16.985Z,23.41
2017-09-04T07:51:44.380Z,22.52
2017-09-04T07:54:11.758Z,22.31
2017-09-04T07:56:39.219Z,21.73
2017-09-04T07:59:06.620Z,22.20
2017-09-04T08:01:34.011Z,22.26
2017-09-04T08:04:01.409Z,21.83
2017-09-04T08:06:28.874Z,22.42
2017-09-04T08:08:56.262Z,21.78
2017-09-04T08:11:23.685Z,22.42
2017-09-04T08:13:51.142Z,22.58
2017-09-04T08:16:18.602Z,23.09
2017-09-04T08:18:47.948Z,23.03
2017-09-04T08:21:15.337Z,22.93
2017-09-04T08:23:42.814Z,23.68
2017-09-04T08:26:10.266Z,24.62
2017-09-04T08:28:37.706Z,23.93
2017-09-04T08:31:05.182Z,25.48
2017-09-04T08:33:32.566Z,24.81
2017-09-04T08:36:00.002Z,25.19
2017-09-04T08:38:27.392Z,26.29
2017-09-04T08:40:54.814Z,25.33
2017-09-04T08:43:22.271Z,26.04
2017-09-04T08:45:49.662Z,26.49
2017-09-04T08:48:17.083Z,25.83
2017-09-04T08:50:44.474Z,26.51
2017-09-04T08:53:11.861Z,25.92
2017-09-04T08:55:39.366Z,26.51
2017-09-04T08:58:06.732Z,26.31
2017-09-04T09:00:34.126Z,25.64
2017-09-04T09:03:01.510Z,27.35
2017-09-04T09:05:28.910Z,27.34
2017-09-04T09:07:56.370Z,26.25
2017-09-04T09:10:23.762Z,27.78
2017-09-04T09:12:51.146Z,26.89
2017-09-04T09:15:18.534Z,27.76
2017-09-04T09:17:45.925Z,27.29
2017-09-04T09:20:13.323Z,28.50
2017-09-04T09:22:41.609Z,28.47
2017-09-04T09:25:09.006Z,28.28
2017-09-04T09:27:36.394Z,29.43
2017-09-04T09:30:03.838Z,29.05
2017-09-04T09:32:31.224Z,29.75
2017-09-04T09:34:58.675Z,30.96
2017-09-04T09:37:26.058Z,30.25
2017-09-04T09:39:53.455Z,32.53
2017-09-04T09:42:20.847Z,32.62
2017-09-04T09:44:48.329Z,32.10
2017-09-04T09:47:15.801Z,33.40
2017-09-04T09:49:43.183Z,32.66
2017-09-04T09:52:10.582Z,33.83
2017-09-04T09:54:37.971Z,33.79
2017-09-04T09:57:05.359Z,35.88
2017-09-04T09:59:32.745Z,33.10
2017-09-04T10:02:00.135Z,34.96
2017-09-04T10:04:27.518Z,35.33
2017-09-04T10:06:54.915Z,34.60
2017-09-04T10:09:22.302Z,33.34
2017-09-04T10:11:49.691Z,32.73
2017-09-04T10:14:17.083Z,35.36
2017-09-04T10:16:44.470Z,36.13
2017-09-04T10:19:11.854Z,33.14
2017-09-04T10:21:39.246Z,32.88
2017-09-04T10:24:06.636Z,32.60
2017-09-04T10:26:34.022Z,32.20
2017-09-04T10:29:01.414Z,34.04
2017-09-04T10:31:28.818Z,33.16
2017-09-04T10:33:56.201Z,35.66
2017-09-04T10:36:23.595Z,34.61
2017-09-04T10:38:50.983Z,34.78
2017-09-04T10:41:18.366Z,34.28
2017-09-04T10:43:45.754Z,32.94
2017-09-04T10:46:13.154Z,34.45
2017-09-04T10:48:40.543Z,36.36
2017-09-04T10:51:07.950Z,31.67
2017-09-04T10:53:35.326Z,32.18
2017-09-04T10:56:02.714Z,30.74
2017-09-04T10:58:30.110Z,32.06
2017-09-04T11:00:57.502Z,33.92
2017-09-04T11:03:24.894Z,33.18
2017-09-04T11:05:52.278Z,34.98
2017-09-04T11:08:19.669Z,30.95
2017-09-04T11:10:47.063Z,31.57
2017-09-04T11:13:14.454Z,35.24
2017-09-04T11:15:41.834Z,34.29
2017-09-04T11:18:09.233Z,32.88
2017-09-04T11:20:36.621Z,32.52
2017-09-04T11:23:04.022Z,32.33
2017-09-04T11:25:31.399Z,33.80
2017-09-04T11:27:58.801Z,33.17
2017-09-04T11:30:26.190Z,31.50
2017-09-04T11:32:53.578Z,33.65
2017-09-04T11:35:20.970Z,33.52
2017-09-04T11:37:48.354Z,31.67
2017-09-04T11:40:15.738Z,32.42
2017-09-04T11:42:43.136Z,32.96
2017-09-04T11:45:10.523Z,30.57
2017-09-04T11:47:37.926Z,30.72
2017-09-04T11:50:05.318Z,31.56
2017-09-04T11:52:32.707Z,33.76
2017-09-04T11:55:00.106Z,31.94
2017-09-04T11:57:27.490Z,34.29
2017-09-04T11:59:54.919Z,31.99
2017-09-04T12:02:22.297Z,31.28
2017-09-04T12:04:49.695Z,30.75
2017-09-04T12:07:17.086Z,30.69
2017-09-04T12:09:44.476Z,31.49
2017-09-04T12:12:11.858Z,33.06
2017-09-04T12:14:39.255Z,31.24
2017-09-04T12:17:06.652Z,32.40
2017-09-04T12:19:34.042Z,32.43
2017-09-04T12:22:03.411Z,30.29
2017-09-04T12:24:30.806Z,32.34
2017-09-04T12:26:58.194Z,30.85
2017-09-04T12:29:25.598Z,31.72
2017-09-04T12:31:52.988Z,29.11
2017-09-04T12:34:20.375Z,31.85
2017-09-04T12:36:47.771Z,29.08
2017-09-04T12:39:15.159Z,30.86
2017-09-04T12:41:42.555Z,29.64
2017-09-04T12:44:09.968Z,30.51
2017-09-04T12:46:37.359Z,29.83
2017-09-04T12:49:04.746Z,31.81
2017-09-04T12:51:32.134Z,30.66
2017-09-04T12:53:59.527Z,29.84
2017-09-04T12:56:26.919Z,30.40
2017-09-04T12:58:54.436Z,30.87
2017-09-04T13:01:21.831Z,30.95
2017-09-04T13:03:49.328Z,29.56
2017-09-04T13:06:16.714Z,30.01
2017-09-04T13:08:44.102Z,29.25
2017-09-04T13:11:28.183Z,29.56
2017-09-04T13:14:01.128Z,28.72
2017-09-04T13:16:34.247Z,28.47
2017-09-04T13:22:17.280Z,30.21
2017-09-04T13:27:58.247Z,32.37
2017-09-04T13:30:31.382Z,31.21
2017-09-04T13:32:59.679Z,29.60
2017-09-04T13:35:32.592Z,30.20
2017-09-04T13:38:05.623Z,30.00
2017-09-04T13:40:38.584Z,30.01
2017-09-04T13:46:15.854Z,29.08
2017-09-04T13:48:48.926Z,29.11
2017-09-04T13:54:33.114Z,29.38
2017-09-04T13:57:05.415Z,28.55
2017-09-04T13:59:38.365Z,29.37
2017-09-04T14:05:22.578Z,29.47
2017-09-04T14:07:55.520Z,30.44
2017-09-04T14:13:33.408Z,29.63
2017-09-04T14:16:20.530Z,29.39
2017-09-04T14:18:48.003Z,29.60
2017-09-04T14:21:15.398Z,30.95
2017-09-04T14:23:42.781Z,29.80
2017-09-04T14:26:10.171Z,30.10
2017-09-04T14:28:37.558Z,30.62
2017-09-04T14:31:04.950Z,29.61
2017-09-04T14:33:32.337Z,30.17
2017-09-04T14:35:59.735Z,30.36
2017-09-04T14:38:27.119Z,30.78
2017-09-04T14:40:55.407Z,31.06
2017-09-04T14:43:40.617Z,31.35
2017-09-04T14:46:13.567Z,31.00
2017-09-04T14:48:40.959Z,31.83
2017-09-04T14:51:08.345Z,31.01
2017-09-04T14:53:35.727Z,29.95
2017-09-04T14:56:03.111Z,32.06
2017-09-04T14:58:30.506Z,30.87
2017-09-04T15:00:57.895Z,31.24
2017-09-04T15:03:25.294Z,30.91
2017-09-04T15:05:52.682Z,31.31
2017-09-04T15:08:20.074Z,31.94
2017-09-04T15:10:47.467Z,31.42
2017-09-04T15:13:14.851Z,32.07
2017-09-04T15:15:42.233Z,31.57
2017-09-04T15:18:09.634Z,32.33
2017-09-04T15:20:37.020Z,32.46
2017-09-04T15:23:06.318Z,31.81
2017-09-04T15:25:33.711Z,33.11
2017-09-04T15:28:01.098Z,33.38
2017-09-04T15:30:28.494Z,32.64
2017-09-04T15:32:55.887Z,33.24
2017-09-04T15:35:23.286Z,32.40
2017-09-04T15:37:50.674Z,32.34
2017-09-04T15:40:18.067Z,33.69
2017-09-04T15:42:45.460Z,33.58
2017-09-04T15:45:12.855Z,32.77
2017-09-04T15:47:40.260Z,32.57
2017-09-04T15:50:07.638Z,33.16
2017-09-04T15:52:35.023Z,33.52
2017-09-04T15:55:02.415Z,33.88
2017-09-04T15:57:29.798Z,32.14
2017-09-04T15:59:57.178Z,31.37
2017-09-04T16:02:24.571Z,31.46
2017-09-04T16:04:51.954Z,32.90
2017-09-04T16:07:22.774Z,32.28
2017-09-04T16:09:50.167Z,33.71
2017-09-04T16:12:18.907Z,32.64
2017-09-04T16:14:48.786Z,32.73
2017-09-04T16:20:32.998Z,32.79
2017-09-04T16:23:01.350Z,33.75
2017-09-04T16:25:32.217Z,33.91
2017-09-04T16:28:03.587Z,33.83
2017-09-04T16:30:30.974Z,34.21
2017-09-04T16:35:59.798Z,33.28
2017-09-04T16:38:28.539Z,33.90
2017-09-04T16:41:07.651Z,33.26
2017-09-04T16:43:44.939Z,33.67
2017-09-04T16:46:16.806Z,34.12
2017-09-04T16:48:44.734Z,35.13
2017-09-04T16:54:35.862Z,36.26
2017-09-04T16:57:06.598Z,36.99
2017-09-04T16:59:33.994Z,35.40
2017-09-04T17:02:01.383Z,33.93
2017-09-04T17:04:28.771Z,35.55
2017-09-04T17:06:56.158Z,34.65
2017-09-04T17:09:23.551Z,34.81
2017-09-04T17:11:52.868Z,35.69
2017-09-04T17:14:20.255Z,36.17
2017-09-04T17:16:49.550Z,37.75
2017-09-04T17:22:27.790Z,37.46
2017-09-04T17:25:05.086Z,38.15
2017-09-04T17:27:32.590Z,39.69
2017-09-04T17:29:59.982Z,40.54
2017-09-04T17:32:27.371Z,40.70
2017-09-04T17:34:54.761Z,41.13
2017-09-04T17:37:22.144Z,41.97
2017-09-04T17:39:49.532Z,42.97
2017-09-04T17:42:16.910Z,43.10
2017-09-04T17:44:44.307Z,43.55
2017-09-04T17:47:11.709Z,44.02
2017-09-04T17:49:39.115Z,44.76
2017-09-04T17:52:06.506Z,44.74
2017-09-04T17:54:33.886Z,45.26
2017-09-04T17:57:01.283Z,45.29
2017-09-04T17:59:28.695Z,45.93
2017-09-04T18:01:56.092Z,46.40
2017-09-04T18:04:23.481Z,46.91
2017-09-04T18:06:50.867Z,46.48
2017-09-04T18:09:18.246Z,46.88
2017-09-04T18:11:45.643Z,47.64
2017-09-04T18:14:13.062Z,48.00
2017-09-04T18:16:40.489Z,47.69
2017-09-04T18:19:07.895Z,47.56
2017-09-04T18:21:35.283Z,48.20
2017-09-04T18:24:02.681Z,49.38
2017-09-04T18:26:30.087Z,49.55
2017-09-04T18:28:57.470Z,50.11
2017-09-04T18:31:24.899Z,49.99
2017-09-04T18:33:52.269Z,50.42
2017-09-04T18:36:19.658Z,50.58
2017-09-04T18:38:47.068Z,50.42
2017-09-04T18:41:14.797Z,50.85
2017-09-04T18:43:42.198Z,51.81
2017-09-04T18:46:09.590Z,52.34
2017-09-04T18:48:37.109Z,53.07
2017-09-04T18:51:04.497Z,53.37
2017-09-04T18:53:31.880Z,53.83
2017-09-04T18:55:59.270Z,55.05
2017-09-04T18:58:26.659Z,54.85
2017-09-04T19:00:54.062Z,54.72
2017-09-04T19:03:21.467Z,56.38
2017-09-04T19:05:48.858Z,57.06
2017-09-04T19:08:16.250Z,57.06
2017-09-04T19:10:43.655Z,57.52
2017-09-04T19:13:11.039Z,58.48
2017-09-04T19:15:38.435Z,57.74
2017-09-04T19:18:23.678Z,58.04
2017-09-04T19:20:51.076Z,58.30
2017-09-04T19:23:18.461Z,57.01
2017-09-04T19:25:45.858Z,58.83
2017-09-04T19:28:13.246Z,58.64
2017-09-04T19:30:40.669Z,58.64
2017-09-04T19:33:08.058Z,57.04
2017-09-04T19:35:35.887Z,56.26
2017-09-04T19:38:03.311Z,58.65
2017-09-04T19:40:30.718Z,58.50
2017-09-04T19:42:58.128Z,57.68
2017-09-04T19:45:25.556Z,58.85
2017-09-04T19:47:52.955Z,58.67
2017-09-04T19:50:20.355Z,58.89
2017-09-04T19:52:47.773Z,59.78
2017-09-04T19:55:15.179Z,59.81
2017-09-04T19:57:42.567Z,59.12
2017-09-04T20:00:09.955Z,58.80
2017-09-04T20:02:37.355Z,58.66
2017-09-04T20:05:04.779Z,58.28
2017-09-04T20:07:32.170Z,57.73
2017-09-04T20:09:59.555Z,59.43
2017-09-04T20:12:26.946Z,61.25
2017-09-04T20:14:54.334Z,60.87
2017-09-04T20:17:21.728Z,58.97
2017-09-04T20:19:49.106Z,59.14
2017-09-04T20:22:16.504Z,58.93
2017-09-04T20:24:43.894Z,58.47
2017-09-04T20:27:11.286Z,59.97
2017-09-04T20:29:38.723Z,61.26
2017-09-04T20:32:06.119Z,61.26
2017-09-04T20:34:33.502Z,60.94
2017-09-04T20:37:00.910Z,61.29
2017-09-04T20:39:28.307Z,63.01
2017-09-04T20:41:55.707Z,62.96
2017-09-04T20:44:23.092Z,63.94
2017-09-04T20:46:50.574Z,63.44
2017-09-04T20:49:17.971Z,63.52
2017-09-04T20:51:45.362Z,62.95
2017-09-04T20:54:12.841Z,61.84
2017-09-04T20:56:40.228Z,62.35
2017-09-04T20:59:07.622Z,61.93
2017-09-04T21:01:35.106Z,62.71
2017-09-04T21:04:02.507Z,61.77
2017-09-04T21:06:29.908Z,62.22
2017-09-04T21:08:57.296Z,61.39
2017-09-04T21:11:24.733Z,61.85
2017-09-04T21:13:52.122Z,62.77
2017-09-04T21:16:19.569Z,63.62
2017-09-04T21:18:46.950Z,65.23
2017-09-04T21:21:14.335Z,66.41
2017-09-04T21:23:42.710Z,66.20
2017-09-04T21:26:10.096Z,66.72
2017-09-04T21:28:37.488Z,68.99
2017-09-04T21:31:04.871Z,68.17
2017-09-04T21:33:32.263Z,67.48
2017-09-04T21:35:59.674Z,67.85
2017-09-04T21:38:27.190Z,66.57
2017-09-04T21:40:54.592Z,66.16
2017-09-04T21:43:21.978Z,65.59
2017-09-04T21:45:49.434Z,64.97
2017-09-04T21:48:16.905Z,64.52
2017-09-04T21:50:44.291Z,64.20
2017-09-04T21:53:11.712Z,63.81
2017-09-04T21:55:39.165Z,64.30
2017-09-04T21:58:06.558Z,63.50
2017-09-04T22:00:33.961Z,63.93
2017-09-04T22:03:01.430Z,64.39
2017-09-04T22:05:28.883Z,65.46
2017-09-04T22:07:56.271Z,65.28
2017-09-04T22:10:23.664Z,65.57
2017-09-04T22:12:51.046Z,64.21
2017-09-04T22:15:18.438Z,64.82
2017-09-04T22:17:45.826Z,65.29
2017-09-04T22:20:13.235Z,66.54
2017-09-04T22:22:40.621Z,65.75
2017-09-04T22:25:08.014Z,64.92
2017-09-04T22:27:35.403Z,65.55
2017-09-04T22:30:02.791Z,66.20
2017-09-04T22:32:30.184Z,65.46
2017-09-04T22:34:57.566Z,65.25
2017-09-04T22:37:24.956Z,65.28
2017-09-04T22:39:52.343Z,64.31
2017-09-04T22:42:19.818Z,64.11
2017-09-04T22:44:47.198Z,64.24
2017-09-04T22:47:14.607Z,64.64
2017-09-04T22:49:41.991Z,64.28
2017-09-04T22:52:09.390Z,63.60
2017-09-04T22:54:36.781Z,64.71
2017-09-04T22:57:04.169Z,64.43
2017-09-04T22:59:31.558Z,65.26
2017-09-04T23:01:58.950Z,64.58
2017-09-04T23:04:26.338Z,65.06
2017-09-04T23:06:53.738Z,65.51
2017-09-04T23:09:21.125Z,65.15
2017-09-04T23:11:48.515Z,64.42
2017-09-04T23:14:15.939Z,64.23
2017-09-04T23:16:43.336Z,65.58
2017-09-04T23:19:10.718Z,64.47
2017-09-04T23:21:38.198Z,63.43
2017-09-04T23:24:05.590Z,63.67
2017-09-04T23:26:33.018Z,63.07
2017-09-04T23:29:00.405Z,63.39
2017-09-04T23:31:27.791Z,64.17
2017-09-04T23:33:55.177Z,64.07
2017-09-04T23:36:22.566Z,64.17
2017-09-04T23:38:49.959Z,67.03
2017-09-04T23:41:17.354Z,66.56
2017-09-04T23:43:44.741Z,67.65
2017-09-04T23:46:12.139Z,68.88
2017-09-04T23:48:39.543Z,69.25
2017-09-04T23:51:06.918Z,68.77
2017-09-04T23:53:34.323Z,68.35
2017-09-04T23:56:01.715Z,67.09
2017-09-04T23:58:29.131Z,66.26
